100LL.CA
Aviation Fuel Pricing for Canadians
Please upgrade your browser - Tested with IE9, FireFox, Chrome, Safari

Fuel Airports Other Help
Prices Economy Info List METAR/TAF Kneeboard Help

Enter a list of
Airport Idents:
Sort Method: As Entered    By Ident   

CYVR
METAR CYVR 130000Z 31003KT 30SM OVC250 06/04 A3039 RMK CS8 CONTRAILS SLP291
TAF CYVR 122338Z 1300/1406 VRB03KT P6SM BKN250 BECMG 1303/1305 10007KT FM131700 09008KT P6SM FEW040 BKN100 FM132000 09008KT P6SM -RA BKN030 OVC060 FM140300 09010G20KT 5SM -RA BR BKN020 OVC040 RMK NXT FCST BY 130300Z
CYXX
METAR CYXX 130000Z 01005KT 30SM SCT180 BKN220 08/03 A3038 RMK AC4CI2 SLP290
TAF CYXX 122338Z 1300/1324 03007KT P6SM BKN220 FM132000 04007KT P6SM BKN100 FM132300 04007KT P6SM -RA BKN060 OVC100 RMK NXT FCST BY 130600Z
KBLI
METAR KBLI 122353Z 01004KT 10SM CLR 10/01 A3038 RMK AO2 SLP295 T01000006 10117 20061 56010
TAF KBLI 122337Z 1300/1324 02004KT P6SM BKN250 FM130800 15004KT P6SM BKN250 FM131900 17010KT P6SM BKN250


Please Send Updates!

Desktop Version ]  [ Mobile Version ]  [ Disclaimer ]